createdAt,value
2023-05-12T00:00:21.687Z,11.45
2023-05-12T00:02:48.884Z,11.43
2023-05-12T00:05:15.938Z,11.40
2023-05-12T00:07:42.902Z,11.43
2023-05-12T00:10:10.123Z,11.33
2023-05-12T00:12:37.286Z,11.40
2023-05-12T00:15:04.489Z,11.53
2023-05-12T00:17:31.554Z,11.53
2023-05-12T00:19:58.548Z,11.59
2023-05-12T00:22:27.020Z,11.66
2023-05-12T00:24:53.943Z,11.47
2023-05-12T00:27:20.952Z,11.65
2023-05-12T00:29:47.922Z,11.66
2023-05-12T00:32:15.005Z,11.57
2023-05-12T00:34:42.635Z,11.59
2023-05-12T00:37:10.104Z,11.63
2023-05-12T00:39:38.184Z,11.49
2023-05-12T00:42:05.880Z,11.46
2023-05-12T00:44:32.807Z,11.58
2023-05-12T00:47:00.320Z,11.49
2023-05-12T00:49:27.656Z,11.44
2023-05-12T00:51:56.107Z,11.51
2023-05-12T00:54:23.444Z,11.40
2023-05-12T00:56:50.637Z,11.35
2023-05-12T00:59:18.430Z,11.34
2023-05-12T01:01:45.564Z,11.35
2023-05-12T01:04:13.955Z,11.33
2023-05-12T01:06:58.409Z,11.23
2023-05-12T01:09:25.867Z,11.36
2023-05-12T01:11:52.800Z,11.32
2023-05-12T01:14:19.812Z,11.38
2023-05-12T01:16:52.166Z,11.57
2023-05-12T01:19:38.760Z,11.54
2023-05-12T01:22:08.176Z,11.40
2023-05-12T01:24:40.140Z,11.35
2023-05-12T01:27:08.376Z,11.33
2023-05-12T01:29:36.134Z,11.30
2023-05-12T01:32:03.417Z,11.27
2023-05-12T01:34:30.824Z,11.31
2023-05-12T01:36:57.803Z,11.23
2023-05-12T01:39:24.674Z,11.20
2023-05-12T01:41:51.712Z,11.10
2023-05-12T01:44:18.744Z,11.14
2023-05-12T01:46:45.692Z,11.13
2023-05-12T01:49:12.773Z,11.13
2023-05-12T01:51:39.710Z,11.18
2023-05-12T01:54:06.813Z,11.19
2023-05-12T01:56:37.532Z,11.12
2023-05-12T01:59:04.659Z,11.16
2023-05-12T02:01:32.564Z,11.16
2023-05-12T02:04:00.269Z,11.12
2023-05-12T02:06:28.872Z,11.08
2023-05-12T02:08:57.029Z,11.02
2023-05-12T02:11:24.094Z,11.06
2023-05-12T02:13:51.421Z,11.19
2023-05-12T02:16:18.464Z,11.23
2023-05-12T02:18:46.019Z,11.14
2023-05-12T02:21:13.029Z,11.11
2023-05-12T02:23:39.960Z,11.08
2023-05-12T02:26:06.940Z,11.22
2023-05-12T02:28:36.760Z,11.16
2023-05-12T02:31:04.706Z,11.14
2023-05-12T02:33:32.071Z,11.12
2023-05-12T02:35:59.023Z,11.33
2023-05-12T02:38:26.006Z,11.31
2023-05-12T02:40:52.929Z,11.27
2023-05-12T02:43:20.816Z,11.21
2023-05-12T02:45:47.860Z,11.14
2023-05-12T02:48:14.831Z,11.16
2023-05-12T02:50:42.149Z,11.05
2023-05-12T02:53:09.408Z,11.05
2023-05-12T02:55:36.421Z,11.21
2023-05-12T02:58:03.906Z,11.19
2023-05-12T03:00:30.970Z,11.25
2023-05-12T03:02:57.919Z,11.13
2023-05-12T03:05:24.937Z,11.16
2023-05-12T03:07:51.932Z,11.17
2023-05-12T03:10:19.492Z,11.17
2023-05-12T03:12:46.911Z,11.11
2023-05-12T03:15:13.860Z,11.15
2023-05-12T03:17:40.918Z,11.25
2023-05-12T03:20:08.587Z,11.22
2023-05-12T03:22:37.006Z,11.23
2023-05-12T03:25:05.330Z,11.21
2023-05-12T03:27:35.440Z,11.37
2023-05-12T03:30:08.063Z,11.34
2023-05-12T03:32:39.414Z,11.27
2023-05-12T03:35:09.469Z,11.29
2023-05-12T03:37:36.762Z,11.32
2023-05-12T03:40:04.236Z,11.29
2023-05-12T03:42:31.339Z,11.22
2023-05-12T03:44:58.778Z,11.14
2023-05-12T03:47:27.749Z,11.16
2023-05-12T03:49:56.112Z,11.18
2023-05-12T03:52:23.640Z,11.22
2023-05-12T03:54:50.948Z,11.16
2023-05-12T03:57:18.607Z,11.14
2023-05-12T03:59:45.564Z,11.15
2023-05-12T04:02:13.359Z,11.10
2023-05-12T04:04:40.413Z,11.07
2023-05-12T04:07:07.667Z,11.09
2023-05-12T04:09:34.642Z,11.09
2023-05-12T04:12:01.780Z,11.12
2023-05-12T04:14:41.673Z,11.15
2023-05-12T04:17:09.642Z,11.19
2023-05-12T04:19:36.604Z,11.19
2023-05-12T04:22:03.933Z,11.18
2023-05-12T04:24:31.537Z,11.16
2023-05-12T04:26:58.546Z,11.12
2023-05-12T04:29:25.987Z,11.17
2023-05-12T04:31:55.667Z,11.16
2023-05-12T04:34:22.941Z,11.20
2023-05-12T04:36:50.243Z,11.17
2023-05-12T04:39:17.298Z,11.12
2023-05-12T04:41:44.486Z,11.23
2023-05-12T04:44:11.577Z,11.32
2023-05-12T04:46:39.727Z,11.28
2023-05-12T04:49:06.949Z,11.30
2023-05-12T04:51:33.891Z,11.26
2023-05-12T04:54:00.821Z,11.32
2023-05-12T04:56:27.776Z,11.26
2023-05-12T04:58:54.835Z,11.21
2023-05-12T05:01:22.350Z,11.16
2023-05-12T05:03:49.561Z,11.14
2023-05-12T05:06:17.139Z,11.21
2023-05-12T05:08:44.621Z,11.29
2023-05-12T05:11:11.709Z,11.19
2023-05-12T05:13:38.770Z,11.30
2023-05-12T05:16:07.015Z,11.20
2023-05-12T05:18:34.514Z,11.20
2023-05-12T05:21:01.906Z,11.26
2023-05-12T05:23:29.127Z,11.24
2023-05-12T05:25:56.378Z,11.33
2023-05-12T05:28:23.639Z,11.31
2023-05-12T05:30:50.607Z,11.28
2023-05-12T05:33:17.638Z,11.29
2023-05-12T05:35:45.812Z,11.31
2023-05-12T05:38:13.392Z,11.40
2023-05-12T05:40:52.362Z,11.44
2023-05-12T05:43:21.632Z,11.35
2023-05-12T05:45:50.138Z,11.45
2023-05-12T05:48:18.310Z,11.65
2023-05-12T05:50:46.964Z,11.49
2023-05-12T05:53:14.411Z,11.59
2023-05-12T05:55:41.515Z,11.55
2023-05-12T05:58:08.910Z,11.55
2023-05-12T06:00:36.307Z,11.60
2023-05-12T06:03:03.874Z,11.57
2023-05-12T06:05:31.253Z,11.64
2023-05-12T06:07:58.305Z,11.74
2023-05-12T06:10:26.056Z,11.76
2023-05-12T06:12:53.234Z,11.61
2023-05-12T06:15:21.690Z,11.58
2023-05-12T06:17:49.971Z,11.60
2023-05-12T06:20:17.071Z,11.61
2023-05-12T06:22:45.309Z,11.50
2023-05-12T06:25:12.422Z,11.59
2023-05-12T06:27:39.513Z,11.52
2023-05-12T06:30:07.540Z,11.45
2023-05-12T06:32:35.014Z,11.45
2023-05-12T06:35:02.174Z,11.57
2023-05-12T06:37:29.225Z,11.61
2023-05-12T06:39:56.214Z,11.74
2023-05-12T06:42:24.650Z,11.83
2023-05-12T06:44:52.148Z,11.86
2023-05-12T06:47:21.039Z,11.93
2023-05-12T06:49:50.394Z,11.99
2023-05-12T06:52:17.670Z,11.84
2023-05-12T06:54:44.605Z,11.73
2023-05-12T06:57:11.652Z,11.71
2023-05-12T06:59:39.076Z,12.00
2023-05-12T07:02:06.237Z,11.96
2023-05-12T07:04:33.155Z,11.80
2023-05-12T07:07:00.074Z,11.85
2023-05-12T07:09:27.112Z,11.95
2023-05-12T07:11:54.627Z,11.99
2023-05-12T07:14:21.673Z,11.95
2023-05-12T07:16:48.708Z,11.93
2023-05-12T07:19:15.728Z,11.96
2023-05-12T07:21:43.581Z,11.83
2023-05-12T07:24:10.529Z,11.93
2023-05-12T07:26:38.273Z,12.08
2023-05-12T07:29:05.676Z,12.16
2023-05-12T07:31:34.032Z,12.12
2023-05-12T07:34:01.276Z,12.18
2023-05-12T07:36:28.555Z,12.28
2023-05-12T07:38:55.500Z,12.31
2023-05-12T07:41:23.281Z,12.51
2023-05-12T07:43:50.222Z,12.37
2023-05-12T07:46:17.194Z,12.56
2023-05-12T07:48:44.252Z,12.46
2023-05-12T07:51:11.228Z,12.61
2023-05-12T07:53:39.364Z,12.69
2023-05-12T07:56:08.481Z,12.58
2023-05-12T07:58:35.482Z,12.51
2023-05-12T08:01:06.187Z,12.41
2023-05-12T08:03:33.889Z,12.69
2023-05-12T08:06:00.970Z,12.47
2023-05-12T08:08:28.038Z,12.73
2023-05-12T08:10:54.952Z,12.64
2023-05-12T08:13:22.394Z,12.89
2023-05-12T08:15:50.310Z,12.89
2023-05-12T08:18:17.456Z,12.66
2023-05-12T08:20:44.472Z,12.66
2023-05-12T08:23:11.407Z,12.42
2023-05-12T08:25:38.400Z,12.51
2023-05-12T08:28:05.450Z,12.83
2023-05-12T08:30:32.417Z,12.41
2023-05-12T08:32:59.504Z,12.49
2023-05-12T08:35:27.380Z,12.39
2023-05-12T08:37:54.665Z,12.42
2023-05-12T08:40:23.493Z,12.35
2023-05-12T08:43:14.994Z,12.31
2023-05-12T08:45:43.017Z,12.29
2023-05-12T08:48:11.339Z,12.20
2023-05-12T08:50:39.258Z,12.30
2023-05-12T08:53:10.576Z,12.31
2023-05-12T08:55:37.738Z,12.61
2023-05-12T08:58:04.706Z,12.56
2023-05-12T09:00:33.422Z,12.62
2023-05-12T09:03:02.559Z,12.74
2023-05-12T09:05:31.113Z,12.40
2023-05-12T09:07:59.441Z,12.51
2023-05-12T09:13:09.109Z,12.45
2023-05-12T09:15:40.083Z,12.26
2023-05-12T09:18:07.057Z,11.97
2023-05-12T09:20:34.777Z,11.84
2023-05-12T09:23:14.029Z,11.85
2023-05-12T09:25:41.069Z,12.16
2023-05-12T09:28:08.501Z,12.15
2023-05-12T09:30:38.513Z,12.28
2023-05-12T09:33:09.336Z,12.36
2023-05-12T09:35:44.013Z,12.32
2023-05-12T09:38:14.664Z,12.43
2023-05-12T09:40:43.369Z,12.43
2023-05-12T09:43:12.533Z,12.42
2023-05-12T09:45:42.770Z,12.72
2023-05-12T09:48:14.439Z,12.58
2023-05-12T09:50:48.634Z,12.84
2023-05-12T09:53:18.038Z,12.60
2023-05-12T09:55:46.313Z,12.51
2023-05-12T09:58:16.170Z,12.54
2023-05-12T10:01:06.553Z,12.54
2023-05-12T10:03:33.717Z,12.41
2023-05-12T10:06:05.672Z,12.50
2023-05-12T10:08:41.182Z,12.55
2023-05-12T10:11:09.271Z,12.51
2023-05-12T10:13:36.443Z,12.11
2023-05-12T10:16:04.173Z,12.08
2023-05-12T10:18:31.844Z,12.09
2023-05-12T10:21:00.985Z,12.00
2023-05-12T10:23:28.786Z,11.88
2023-05-12T10:26:02.419Z,12.05
2023-05-12T10:28:30.240Z,12.08
2023-05-12T10:30:58.576Z,12.09
2023-05-12T10:33:26.616Z,11.98
2023-05-12T10:35:53.967Z,12.06
2023-05-12T10:38:21.062Z,12.14
2023-05-12T10:41:01.986Z,12.20
2023-05-12T10:43:38.001Z,12.21
2023-05-12T10:46:21.979Z,12.10
2023-05-12T10:49:08.693Z,12.05
2023-05-12T10:51:50.138Z,12.16
2023-05-12T10:54:24.476Z,12.13
2023-05-12T10:56:52.717Z,12.10
2023-05-12T10:59:24.622Z,12.09
2023-05-12T11:02:03.096Z,12.26
2023-05-12T11:04:43.138Z,12.32
2023-05-12T11:07:14.326Z,12.63
2023-05-12T11:12:17.455Z,12.64
2023-05-12T11:14:46.207Z,12.90
2023-05-12T11:17:14.087Z,13.00
2023-05-12T11:19:47.461Z,13.35
2023-05-12T11:22:17.709Z,13.44
2023-05-12T11:24:44.763Z,13.34
2023-05-12T11:27:16.955Z,13.56
2023-05-12T11:29:47.092Z,13.42
2023-05-12T11:32:16.043Z,13.18
2023-05-12T11:34:43.046Z,13.37
2023-05-12T11:37:10.318Z,13.44
2023-05-12T11:39:37.198Z,13.43
2023-05-12T11:42:13.056Z,13.51
2023-05-12T11:44:50.623Z,13.70
2023-05-12T11:47:21.048Z,13.44
2023-05-12T11:49:53.038Z,13.72
2023-05-12T11:52:21.827Z,13.93
2023-05-12T11:55:01.118Z,14.06
2023-05-12T11:57:33.643Z,13.76
2023-05-12T12:00:09.252Z,13.89
2023-05-12T12:02:43.560Z,14.23
2023-05-12T12:05:18.448Z,14.70
2023-05-12T12:07:45.793Z,15.00
2023-05-12T12:10:13.724Z,15.21
2023-05-12T12:12:41.570Z,15.02
2023-05-12T12:15:09.654Z,15.42
2023-05-12T12:17:37.505Z,15.25
2023-05-12T12:20:04.779Z,15.39
2023-05-12T12:22:34.692Z,15.33
2023-05-12T12:25:02.770Z,15.33
2023-05-12T12:27:29.854Z,15.58
2023-05-12T12:29:56.932Z,15.78
2023-05-12T12:32:23.975Z,15.43
2023-05-12T12:34:51.120Z,15.25
2023-05-12T12:37:18.145Z,15.00
2023-05-12T12:39:45.315Z,15.21
2023-05-12T12:42:12.288Z,15.30
2023-05-12T12:44:39.543Z,14.72
2023-05-12T12:47:06.495Z,14.95
2023-05-12T12:49:33.490Z,14.94
2023-05-12T12:52:00.598Z,15.33
2023-05-12T12:54:28.539Z,15.50
2023-05-12T12:56:56.056Z,15.50
2023-05-12T12:59:23.605Z,15.54
2023-05-12T13:01:50.778Z,15.28
2023-05-12T13:04:22.443Z,15.48
2023-05-12T13:06:49.787Z,15.57
2023-05-12T13:09:19.677Z,15.29
2023-05-12T13:11:47.283Z,15.19
2023-05-12T13:14:14.637Z,14.89
2023-05-12T13:16:42.012Z,14.42
2023-05-12T13:19:09.251Z,14.17
2023-05-12T13:21:36.282Z,13.98
2023-05-12T13:24:03.431Z,13.95
2023-05-12T13:26:30.412Z,13.53
2023-05-12T13:28:57.581Z,13.34
2023-05-12T13:31:24.619Z,13.19
2023-05-12T13:33:51.874Z,13.39
2023-05-12T13:36:18.997Z,13.44
2023-05-12T13:38:48.629Z,13.56
2023-05-12T13:41:15.615Z,13.37
2023-05-12T13:43:42.552Z,13.52
2023-05-12T13:46:09.742Z,13.35
2023-05-12T13:48:36.774Z,13.41
2023-05-12T13:51:03.813Z,13.41
2023-05-12T13:53:31.004Z,13.34
2023-05-12T13:55:58.063Z,13.15
2023-05-12T13:58:25.111Z,13.05
2023-05-12T14:00:52.196Z,13.06
2023-05-12T14:03:19.064Z,13.22
2023-05-12T14:05:46.125Z,13.37
2023-05-12T14:08:13.131Z,13.77
2023-05-12T14:10:40.472Z,14.11
2023-05-12T14:13:08.605Z,14.43
2023-05-12T14:15:47.856Z,14.76
2023-05-12T14:18:15.477Z,15.09
2023-05-12T14:20:45.409Z,15.27
2023-05-12T14:23:12.746Z,15.52
2023-05-12T14:25:39.946Z,15.67
2023-05-12T14:28:07.098Z,15.17
2023-05-12T14:30:37.780Z,14.81
2023-05-12T14:33:05.140Z,14.50
2023-05-12T14:35:32.419Z,14.34
2023-05-12T14:37:59.437Z,14.44
2023-05-12T14:40:27.549Z,14.62
2023-05-12T14:42:55.535Z,14.62
2023-05-12T14:45:22.811Z,14.91
2023-05-12T14:47:50.183Z,15.33
2023-05-12T14:50:18.633Z,15.67
2023-05-12T14:52:46.245Z,16.31
2023-05-12T14:55:14.203Z,16.02
2023-05-12T14:57:42.136Z,15.71
2023-05-12T15:00:11.466Z,15.42
2023-05-12T15:02:40.703Z,15.65
2023-05-12T15:05:09.031Z,15.56
2023-05-12T15:07:36.675Z,15.49
2023-05-12T15:10:04.605Z,15.39
2023-05-12T15:12:32.022Z,15.20
2023-05-12T15:15:01.471Z,15.05
2023-05-12T15:17:28.684Z,15.23
2023-05-12T15:19:59.475Z,15.00
2023-05-12T15:22:26.774Z,14.84
2023-05-12T15:24:53.734Z,14.45
2023-05-12T15:27:20.839Z,14.19
2023-05-12T15:29:47.944Z,13.87
2023-05-12T15:32:15.067Z,13.76
2023-05-12T15:34:41.975Z,13.81
2023-05-12T15:37:10.156Z,13.59
2023-05-12T15:39:37.294Z,13.59
2023-05-12T15:42:05.569Z,13.69
2023-05-12T15:44:36.439Z,13.89
2023-05-12T15:47:03.711Z,13.85
2023-05-12T15:49:30.661Z,13.74
2023-05-12T15:51:57.619Z,13.81
2023-05-12T15:54:26.626Z,14.02
2023-05-12T15:56:53.542Z,14.11
2023-05-12T15:59:20.674Z,14.24
2023-05-12T16:01:47.753Z,14.36
2023-05-12T16:04:14.833Z,14.19
2023-05-12T16:06:41.804Z,14.11
2023-05-12T16:09:09.635Z,14.25
2023-05-12T16:11:36.507Z,14.21
2023-05-12T16:14:03.645Z,14.01
2023-05-12T16:16:30.960Z,13.96
2023-05-12T16:19:03.170Z,14.03
2023-05-12T16:21:33.455Z,13.76
2023-05-12T16:24:00.420Z,13.88
2023-05-12T16:26:27.950Z,13.96
2023-05-12T16:28:54.891Z,13.98
2023-05-12T16:31:21.954Z,14.05
2023-05-12T16:33:48.938Z,13.76
2023-05-12T16:36:17.752Z,13.91
2023-05-12T16:38:44.862Z,13.98
2023-05-12T16:41:12.033Z,14.13
2023-05-12T16:43:39.173Z,13.85
2023-05-12T16:46:06.464Z,13.94
2023-05-12T16:48:36.499Z,14.00
2023-05-12T16:51:09.266Z,14.01
2023-05-12T16:53:36.586Z,13.97
2023-05-12T16:56:04.358Z,13.85
2023-05-12T16:58:31.789Z,13.66
2023-05-12T17:00:59.704Z,13.66
2023-05-12T17:03:27.560Z,13.58
2023-05-12T17:05:54.639Z,13.42
2023-05-12T17:08:21.679Z,13.27
2023-05-12T17:10:48.609Z,13.17
2023-05-12T17:13:17.007Z,13.19
2023-05-12T17:15:44.081Z,13.10
2023-05-12T17:18:13.121Z,13.08
2023-05-12T17:20:40.220Z,13.15
2023-05-12T17:23:08.412Z,13.18
2023-05-12T17:25:35.467Z,13.33
2023-05-12T17:28:02.745Z,13.34
2023-05-12T17:30:29.652Z,13.36
2023-05-12T17:32:56.694Z,13.44
2023-05-12T17:35:24.097Z,13.34
2023-05-12T17:37:53.859Z,13.36
2023-05-12T17:40:21.991Z,13.29
2023-05-12T17:42:50.545Z,13.22
2023-05-12T17:45:18.049Z,13.20
2023-05-12T17:47:49.300Z,13.27
2023-05-12T17:50:16.629Z,13.25
2023-05-12T17:52:44.110Z,13.23
2023-05-12T17:55:11.282Z,13.10
2023-05-12T17:57:38.346Z,13.09
2023-05-12T18:00:10.152Z,12.98
2023-05-12T18:02:44.444Z,12.90
2023-05-12T18:05:11.700Z,12.72
2023-05-12T18:07:38.877Z,12.72
2023-05-12T18:10:10.468Z,12.84
2023-05-12T18:12:39.063Z,12.78
2023-05-12T18:15:06.610Z,12.76
2023-05-12T18:17:33.623Z,12.72
2023-05-12T18:20:00.674Z,12.77
2023-05-12T18:22:27.699Z,12.71
2023-05-12T18:24:54.801Z,12.71
2023-05-12T18:27:21.843Z,12.62
2023-05-12T18:29:48.761Z,12.55
2023-05-12T18:32:15.719Z,12.54
2023-05-12T18:34:44.355Z,12.63
2023-05-12T18:37:15.801Z,12.56
2023-05-12T18:39:43.411Z,12.62
2023-05-12T18:42:11.299Z,12.59
2023-05-12T18:44:40.745Z,12.64
2023-05-12T18:47:08.825Z,12.72
2023-05-12T18:49:36.361Z,12.72
2023-05-12T18:52:04.165Z,12.79
2023-05-12T18:54:31.305Z,12.80
2023-05-12T18:56:58.219Z,12.83
2023-05-12T18:59:25.147Z,12.74
2023-05-12T19:01:52.161Z,12.74
2023-05-12T19:04:19.817Z,12.67
2023-05-12T19:06:47.036Z,12.67
2023-05-12T19:09:14.328Z,12.69
2023-05-12T19:11:41.275Z,12.69
2023-05-12T19:14:08.429Z,12.70
2023-05-12T19:16:36.497Z,12.91
2023-05-12T19:19:03.561Z,12.94
2023-05-12T19:21:33.858Z,13.00
2023-05-12T19:24:01.688Z,13.03
2023-05-12T19:26:28.593Z,13.03
2023-05-12T19:28:55.677Z,13.04
2023-05-12T19:31:22.720Z,12.95
2023-05-12T19:33:49.816Z,12.95
2023-05-12T19:36:16.958Z,12.79
2023-05-12T19:38:44.668Z,12.81
2023-05-12T19:41:11.696Z,12.85
2023-05-12T19:43:39.112Z,12.79
2023-05-12T19:46:06.316Z,12.82
2023-05-12T19:48:33.351Z,12.79
2023-05-12T19:51:00.760Z,12.71
2023-05-12T19:53:27.835Z,12.66
2023-05-12T19:55:55.090Z,12.65
2023-05-12T19:58:22.327Z,12.64
2023-05-12T20:00:49.284Z,12.56
2023-05-12T20:03:16.417Z,12.49
2023-05-12T20:05:43.469Z,12.48
2023-05-12T20:08:10.509Z,12.40
2023-05-12T20:10:37.539Z,12.39
2023-05-12T20:13:04.969Z,12.34
2023-05-12T20:15:32.363Z,12.37
2023-05-12T20:17:59.392Z,12.35
2023-05-12T20:20:26.346Z,12.30
2023-05-12T20:22:53.309Z,12.26
2023-05-12T20:25:20.408Z,12.18
2023-05-12T20:27:48.329Z,12.22
2023-05-12T20:30:15.327Z,12.22
2023-05-12T20:32:43.851Z,12.26
2023-05-12T20:35:10.912Z,12.29
2023-05-12T20:37:39.050Z,12.32
2023-05-12T20:40:07.389Z,12.35
2023-05-12T20:42:34.404Z,12.39
2023-05-12T20:45:01.752Z,12.41
2023-05-12T20:47:30.638Z,12.42
2023-05-12T20:49:57.849Z,12.36
2023-05-12T20:52:28.989Z,12.32
2023-05-12T20:54:57.859Z,12.32
2023-05-12T20:57:25.660Z,12.28
2023-05-12T20:59:52.916Z,12.27
2023-05-12T21:02:20.166Z,12.25
2023-05-12T21:04:47.127Z,12.25
2023-05-12T21:07:13.995Z,12.21
2023-05-12T21:09:41.002Z,12.24
2023-05-12T21:12:08.434Z,12.26
2023-05-12T21:14:39.732Z,12.21
2023-05-12T21:17:08.177Z,12.28
2023-05-12T21:19:39.425Z,12.39
2023-05-12T21:22:07.670Z,12.39
2023-05-12T21:24:34.553Z,12.42
2023-05-12T21:27:05.916Z,12.39
2023-05-12T21:29:33.667Z,12.40
2023-05-12T21:32:01.047Z,12.40
2023-05-12T21:34:28.360Z,12.48
2023-05-12T21:36:55.416Z,12.40
2023-05-12T21:39:22.433Z,12.36
2023-05-12T21:41:49.404Z,12.29
2023-05-12T21:44:17.468Z,12.32
2023-05-12T21:46:44.678Z,12.34
2023-05-12T21:49:11.727Z,12.38
2023-05-12T21:51:38.632Z,12.37
2023-05-12T21:54:05.630Z,12.34
2023-05-12T21:56:32.647Z,12.28
2023-05-12T21:58:59.534Z,12.30
2023-05-12T22:01:26.498Z,12.31
2023-05-12T22:03:53.531Z,12.26
2023-05-12T22:06:20.592Z,12.16
2023-05-12T22:08:47.507Z,12.21
2023-05-12T22:11:14.478Z,12.30
2023-05-12T22:13:41.553Z,12.27
2023-05-12T22:16:08.667Z,12.28
2023-05-12T22:18:35.807Z,12.26
2023-05-12T22:21:02.769Z,12.24
2023-05-12T22:23:29.910Z,12.24
2023-05-12T22:25:56.827Z,12.20
2023-05-12T22:28:23.838Z,12.26
2023-05-12T22:30:50.703Z,12.31
2023-05-12T22:33:17.631Z,12.28
2023-05-12T22:35:44.651Z,12.26
2023-05-12T22:38:11.616Z,12.22
2023-05-12T22:40:38.591Z,12.20
2023-05-12T22:43:07.014Z,12.13
2023-05-12T22:45:33.938Z,12.12
2023-05-12T22:48:01.051Z,12.06
2023-05-12T22:50:28.089Z,12.07
2023-05-12T22:52:57.481Z,12.07
2023-05-12T22:55:30.903Z,12.08
2023-05-12T22:57:58.452Z,12.02
2023-05-12T23:00:25.416Z,11.96
2023-05-12T23:02:52.902Z,11.93
2023-05-12T23:05:20.919Z,11.83
2023-05-12T23:07:53.714Z,11.81
2023-05-12T23:10:20.743Z,11.79
2023-05-12T23:12:47.725Z,11.75
2023-05-12T23:15:14.668Z,11.65
2023-05-12T23:17:42.695Z,11.65
2023-05-12T23:20:09.938Z,11.61
2023-05-12T23:22:36.848Z,11.55
2023-05-12T23:25:03.882Z,11.70
2023-05-12T23:27:30.777Z,11.66
2023-05-12T23:29:57.755Z,11.74
2023-05-12T23:32:24.883Z,11.74
2023-05-12T23:34:52.382Z,11.74
2023-05-12T23:37:21.970Z,11.76
2023-05-12T23:39:48.994Z,11.62
2023-05-12T23:42:17.306Z,11.59
2023-05-12T23:44:44.254Z,11.57
2023-05-12T23:47:11.148Z,11.50
2023-05-12T23:49:38.070Z,11.39
2023-05-12T23:52:05.250Z,11.31
2023-05-12T23:54:32.175Z,11.31
2023-05-12T23:56:59.016Z,11.32
2023-05-12T23:59:25.977Z,11.30
